ULLI/LED METAR and TAF weather

Enter ICAO airport designator
Station Type Date Time Source
ULLI METAR 2019/11/22 00:30 UTC NOAA

ULLI 220030Z 12002MPS 9999 FEW020 M04/M05 Q1037 R10R/090060 NOSIG


Station Type Date Time Source
ULLI Decoded METAR 2019/11/22 00:30 UTC NOAA

St. Peterburg, Russia (ULLI) 59-58N 030-18E 6M
Nov 21, 2019 - 07:30 PM EST / 2019.11.22 0030 UTC
Wind: from the ESE (120 degrees) at 4 MPH (4 KT):0
Visibility: greater than 7 mile(s):0
Sky conditions: mostly clear
Temperature: 24 F (-4 C)
Dew Point: 23 F (-5 C)
Relative Humidity: 92%
Pressure (altimeter): 30.62 in. Hg (1037 hPa)
ob: ULLI 220030Z 12002MPS 9999 FEW020 M04/M05 Q1037 R10R/090060 NOSIG
cycle: 0

Station Type Date Time Source
ULLI TAF 2019/11/21 21:24 UTC NOAA

TAF TAF ULLI 212000Z 2121/2221 16005MPS 6000 SCT020
TEMPO 2121/2206 BKN011
BECMG 2218/2220 17003MPS

Example: see airport list